sensor_id;sensor_type;location;lat;lon;timestamp;P1;durP1;ratioP1;P2;durP2;ratioP2
37383;SDS011;23258;49.718;11.082;2023-09-18T00:01:50;3.70;;;3.40;;
37383;SDS011;23258;49.718;11.082;2023-09-18T00:04:20;3.85;;;3.50;;
37383;SDS011;23258;49.718;11.082;2023-09-18T00:06:49;3.95;;;3.65;;
37383;SDS011;23258;49.718;11.082;2023-09-18T00:09:22;4.18;;;3.78;;
37383;SDS011;23258;49.718;11.082;2023-09-18T00:11:52;3.70;;;3.22;;
37383;SDS011;23258;49.718;11.082;2023-09-18T00:14:21;3.47;;;3.22;;
37383;SDS011;23258;49.718;11.082;2023-09-18T00:16:52;3.30;;;3.00;;
37383;SDS011;23258;49.718;11.082;2023-09-18T00:19:25;3.65;;;3.35;;
37383;SDS011;23258;49.718;11.082;2023-09-18T00:21:54;3.30;;;3.00;;
37383;SDS011;23258;49.718;11.082;2023-09-18T00:24:30;4.82;;;3.38;;
37383;SDS011;23258;49.718;11.082;2023-09-18T00:27:00;3.55;;;3.25;;
37383;SDS011;23258;49.718;11.082;2023-09-18T00:29:30;3.63;;;3.33;;
37383;SDS011;23258;49.718;11.082;2023-09-18T00:31:59;2.92;;;2.72;;
37383;SDS011;23258;49.718;11.082;2023-09-18T00:34:29;3.35;;;3.05;;
37383;SDS011;23258;49.718;11.082;2023-09-18T00:36:59;3.17;;;2.97;;
37383;SDS011;23258;49.718;11.082;2023-09-18T00:39:32;3.13;;;2.92;;
37383;SDS011;23258;49.718;11.082;2023-09-18T00:42:01;2.95;;;2.75;;
37383;SDS011;23258;49.718;11.082;2023-09-18T00:44:31;3.33;;;3.13;;
37383;SDS011;23258;49.718;11.082;2023-09-18T00:47:04;2.83;;;2.63;;
37383;SDS011;23258;49.718;11.082;2023-09-18T00:49:34;3.40;;;2.83;;
37383;SDS011;23258;49.718;11.082;2023-09-18T00:52:05;2.92;;;2.72;;
37383;SDS011;23258;49.718;11.082;2023-09-18T00:54:37;2.92;;;2.72;;
37383;SDS011;23258;49.718;11.082;2023-09-18T00:57:08;3.20;;;2.85;;
37383;SDS011;23258;49.718;11.082;2023-09-18T00:59:38;2.95;;;2.75;;
37383;SDS011;23258;49.718;11.082;2023-09-18T01:02:08;3.17;;;2.88;;
37383;SDS011;23258;49.718;11.082;2023-09-18T01:04:38;3.13;;;2.80;;
37383;SDS011;23258;49.718;11.082;2023-09-18T01:07:10;2.80;;;2.60;;
37383;SDS011;23258;49.718;11.082;2023-09-18T01:09:43;2.15;;;2.05;;
37383;SDS011;23258;49.718;11.082;2023-09-18T01:12:14;2.75;;;2.55;;
37383;SDS011;23258;49.718;11.082;2023-09-18T01:14:50;2.38;;;2.17;;
37383;SDS011;23258;49.718;11.082;2023-09-18T01:17:20;2.75;;;2.55;;
37383;SDS011;23258;49.718;11.082;2023-09-18T01:19:49;2.85;;;2.65;;
37383;SDS011;23258;49.718;11.082;2023-09-18T01:22:19;2.60;;;2.40;;
37383;SDS011;23258;49.718;11.082;2023-09-18T01:24:51;4.50;;;2.70;;
37383;SDS011;23258;49.718;11.082;2023-09-18T01:27:21;2.22;;;2.13;;
37383;SDS011;23258;49.718;11.082;2023-09-18T01:29:51;3.50;;;3.03;;
37383;SDS011;23258;49.718;11.082;2023-09-18T01:32:21;3.03;;;2.72;;
37383;SDS011;23258;49.718;11.082;2023-09-18T01:34:54;2.85;;;2.65;;
37383;SDS011;23258;49.718;11.082;2023-09-18T01:37:26;2.63;;;2.42;;
37383;SDS011;23258;49.718;11.082;2023-09-18T01:39:58;2.70;;;2.50;;
37383;SDS011;23258;49.718;11.082;2023-09-18T01:42:28;2.95;;;2.70;;
37383;SDS011;23258;49.718;11.082;2023-09-18T01:44:58;3.40;;;3.15;;
37383;SDS011;23258;49.718;11.082;2023-09-18T01:47:29;3.22;;;2.92;;
37383;SDS011;23258;49.718;11.082;2023-09-18T01:50:02;3.67;;;3.38;;
37383;SDS011;23258;49.718;11.082;2023-09-18T01:52:32;4.90;;;3.13;;
37383;SDS011;23258;49.718;11.082;2023-09-18T01:55:06;3.65;;;3.35;;
37383;SDS011;23258;49.718;11.082;2023-09-18T01:57:36;4.80;;;3.30;;
37383;SDS011;23258;49.718;11.082;2023-09-18T02:00:06;3.67;;;3.38;;
37383;SDS011;23258;49.718;11.082;2023-09-18T02:02:40;3.60;;;3.33;;
37383;SDS011;23258;49.718;11.082;2023-09-18T02:05:30;3.70;;;3.45;;
37383;SDS011;23258;49.718;11.082;2023-09-18T02:08:01;3.20;;;3.00;;
37383;SDS011;23258;49.718;11.082;2023-09-18T02:10:33;3.58;;;3.28;;
37383;SDS011;23258;49.718;11.082;2023-09-18T02:13:03;3.40;;;3.10;;
37383;SDS011;23258;49.718;11.082;2023-09-18T02:15:32;3.65;;;3.35;;
37383;SDS011;23258;49.718;11.082;2023-09-18T02:18:03;4.00;;;3.67;;
37383;SDS011;23258;49.718;11.082;2023-09-18T02:20:39;3.60;;;3.30;;
37383;SDS011;23258;49.718;11.082;2023-09-18T02:23:10;3.58;;;3.28;;
37383;SDS011;23258;49.718;11.082;2023-09-18T02:25:44;3.20;;;3.00;;
37383;SDS011;23258;49.718;11.082;2023-09-18T02:28:14;4.65;;;3.97;;
37383;SDS011;23258;49.718;11.082;2023-09-18T02:30:43;3.45;;;3.25;;
37383;SDS011;23258;49.718;11.082;2023-09-18T02:33:13;3.63;;;3.33;;
37383;SDS011;23258;49.718;11.082;2023-09-18T02:35:43;3.25;;;3.05;;
37383;SDS011;23258;49.718;11.082;2023-09-18T02:38:13;3.45;;;3.15;;
37383;SDS011;23258;49.718;11.082;2023-09-18T02:40:45;3.53;;;3.22;;
37383;SDS011;23258;49.718;11.082;2023-09-18T02:43:14;4.53;;;3.28;;
37383;SDS011;23258;49.718;11.082;2023-09-18T02:45:44;3.15;;;2.95;;
37383;SDS011;23258;49.718;11.082;2023-09-18T02:48:14;3.78;;;3.47;;
37383;SDS011;23258;49.718;11.082;2023-09-18T02:50:44;3.17;;;2.97;;
37383;SDS011;23258;49.718;11.082;2023-09-18T02:53:16;3.75;;;3.45;;
37383;SDS011;23258;49.718;11.082;2023-09-18T02:55:49;4.47;;;3.42;;
37383;SDS011;23258;49.718;11.082;2023-09-18T02:58:19;3.95;;;3.55;;
37383;SDS011;23258;49.718;11.082;2023-09-18T03:00:52;4.03;;;3.45;;
37383;SDS011;23258;49.718;11.082;2023-09-18T03:03:22;3.65;;;3.35;;
37383;SDS011;23258;49.718;11.082;2023-09-18T03:05:52;3.83;;;3.50;;
37383;SDS011;23258;49.718;11.082;2023-09-18T03:08:22;3.90;;;3.60;;
37383;SDS011;23258;49.718;11.082;2023-09-18T03:10:54;4.18;;;3.88;;
37383;SDS011;23258;49.718;11.082;2023-09-18T03:13:25;4.05;;;3.65;;
37383;SDS011;23258;49.718;11.082;2023-09-18T03:15:55;3.85;;;3.55;;
37383;SDS011;23258;49.718;11.082;2023-09-18T03:18:27;3.75;;;3.47;;
37383;SDS011;23258;49.718;11.082;2023-09-18T03:20:57;3.88;;;3.58;;
37383;SDS011;23258;49.718;11.082;2023-09-18T03:23:27;3.58;;;3.25;;
37383;SDS011;23258;49.718;11.082;2023-09-18T03:25:59;3.72;;;3.22;;
37383;SDS011;23258;49.718;11.082;2023-09-18T03:28:29;4.50;;;4.10;;
37383;SDS011;23258;49.718;11.082;2023-09-18T03:30:59;3.40;;;3.13;;
37383;SDS011;23258;49.718;11.082;2023-09-18T03:33:31;3.67;;;3.38;;
37383;SDS011;23258;49.718;11.082;2023-09-18T03:36:01;4.05;;;3.58;;
37383;SDS011;23258;49.718;11.082;2023-09-18T03:38:33;3.88;;;3.63;;
37383;SDS011;23258;49.718;11.082;2023-09-18T03:41:07;3.80;;;3.50;;
37383;SDS011;23258;49.718;11.082;2023-09-18T03:43:37;4.07;;;3.78;;
37383;SDS011;23258;49.718;11.082;2023-09-18T03:46:07;3.70;;;3.40;;
37383;SDS011;23258;49.718;11.082;2023-09-18T03:48:43;3.85;;;3.40;;
37383;SDS011;23258;49.718;11.082;2023-09-18T03:51:14;3.92;;;3.22;;
37383;SDS011;23258;49.718;11.082;2023-09-18T03:53:45;3.67;;;3.40;;
37383;SDS011;23258;49.718;11.082;2023-09-18T03:56:17;3.72;;;3.40;;
37383;SDS011;23258;49.718;11.082;2023-09-18T03:58:47;6.68;;;4.07;;
37383;SDS011;23258;49.718;11.082;2023-09-18T04:01:18;4.00;;;3.67;;
37383;SDS011;23258;49.718;11.082;2023-09-18T04:03:48;4.13;;;3.67;;
37383;SDS011;23258;49.718;11.082;2023-09-18T04:06:18;4.28;;;3.97;;
37383;SDS011;23258;49.718;11.082;2023-09-18T04:08:48;3.65;;;3.35;;
37383;SDS011;23258;49.718;11.082;2023-09-18T04:11:20;4.60;;;3.88;;
37383;SDS011;23258;49.718;11.082;2023-09-18T04:13:52;3.92;;;3.55;;
37383;SDS011;23258;49.718;11.082;2023-09-18T04:16:21;3.38;;;3.17;;
37383;SDS011;23258;49.718;11.082;2023-09-18T04:18:51;3.95;;;3.65;;
37383;SDS011;23258;49.718;11.082;2023-09-18T04:21:21;3.92;;;3.63;;
37383;SDS011;23258;49.718;11.082;2023-09-18T04:23:52;4.60;;;4.18;;
37383;SDS011;23258;49.718;11.082;2023-09-18T04:26:27;3.88;;;3.58;;
37383;SDS011;23258;49.718;11.082;2023-09-18T04:28:58;4.00;;;3.70;;
37383;SDS011;23258;49.718;11.082;2023-09-18T04:31:29;3.55;;;3.35;;
37383;SDS011;23258;49.718;11.082;2023-09-18T04:33:59;4.75;;;3.67;;
37383;SDS011;23258;49.718;11.082;2023-09-18T04:36:30;4.20;;;3.78;;
37383;SDS011;23258;49.718;11.082;2023-09-18T04:39:02;5.47;;;4.65;;
37383;SDS011;23258;49.718;11.082;2023-09-18T04:41:35;4.22;;;3.83;;
37383;SDS011;23258;49.718;11.082;2023-09-18T04:44:06;4.80;;;4.43;;
37383;SDS011;23258;49.718;11.082;2023-09-18T04:46:36;4.35;;;4.03;;
37383;SDS011;23258;49.718;11.082;2023-09-18T04:49:10;4.43;;;4.03;;
37383;SDS011;23258;49.718;11.082;2023-09-18T04:51:41;4.72;;;4.32;;
37383;SDS011;23258;49.718;11.082;2023-09-18T04:54:11;4.03;;;3.72;;
37383;SDS011;23258;49.718;11.082;2023-09-18T04:56:44;4.32;;;3.95;;
37383;SDS011;23258;49.718;11.082;2023-09-18T04:59:15;4.55;;;4.18;;
37383;SDS011;23258;49.718;11.082;2023-09-18T05:01:44;6.22;;;4.15;;
37383;SDS011;23258;49.718;11.082;2023-09-18T05:04:14;4.90;;;4.50;;
37383;SDS011;23258;49.718;11.082;2023-09-18T05:06:45;4.93;;;4.28;;
37383;SDS011;23258;49.718;11.082;2023-09-18T05:09:15;4.82;;;4.43;;
37383;SDS011;23258;49.718;11.082;2023-09-18T05:11:47;4.88;;;4.40;;
37383;SDS011;23258;49.718;11.082;2023-09-18T05:14:17;4.15;;;3.85;;
37383;SDS011;23258;49.718;11.082;2023-09-18T05:16:47;4.57;;;4.18;;
37383;SDS011;23258;49.718;11.082;2023-09-18T05:19:17;4.30;;;3.90;;
37383;SDS011;23258;49.718;11.082;2023-09-18T05:21:46;4.18;;;3.88;;
37383;SDS011;23258;49.718;11.082;2023-09-18T05:24:17;5.13;;;4.53;;
37383;SDS011;23258;49.718;11.082;2023-09-18T05:26:56;4.70;;;4.30;;
37383;SDS011;23258;49.718;11.082;2023-09-18T05:29:26;4.60;;;4.20;;
37383;SDS011;23258;49.718;11.082;2023-09-18T05:31:55;7.15;;;4.32;;
37383;SDS011;23258;49.718;11.082;2023-09-18T05:34:25;5.22;;;4.50;;
37383;SDS011;23258;49.718;11.082;2023-09-18T05:36:55;4.50;;;4.10;;
37383;SDS011;23258;49.718;11.082;2023-09-18T05:39:24;6.07;;;4.60;;
37383;SDS011;23258;49.718;11.082;2023-09-18T05:41:56;5.63;;;5.13;;
37383;SDS011;23258;49.718;11.082;2023-09-18T05:44:26;5.22;;;4.63;;
37383;SDS011;23258;49.718;11.082;2023-09-18T05:46:56;4.68;;;4.07;;
37383;SDS011;23258;49.718;11.082;2023-09-18T05:49:26;4.25;;;3.95;;
37383;SDS011;23258;49.718;11.082;2023-09-18T05:51:56;5.13;;;4.68;;
37383;SDS011;23258;49.718;11.082;2023-09-18T05:54:26;4.75;;;4.35;;
37383;SDS011;23258;49.718;11.082;2023-09-18T05:56:58;4.65;;;4.25;;
37383;SDS011;23258;49.718;11.082;2023-09-18T05:59:29;4.65;;;4.25;;
37383;SDS011;23258;49.718;11.082;2023-09-18T06:01:59;4.82;;;3.97;;
37383;SDS011;23258;49.718;11.082;2023-09-18T06:04:29;5.18;;;4.45;;
37383;SDS011;23258;49.718;11.082;2023-09-18T06:06:58;4.88;;;4.47;;
37383;SDS011;23258;49.718;11.082;2023-09-18T06:09:28;4.38;;;3.97;;
37383;SDS011;23258;49.718;11.082;2023-09-18T06:12:00;4.40;;;4.00;;
37383;SDS011;23258;49.718;11.082;2023-09-18T06:14:34;5.10;;;4.20;;
37383;SDS011;23258;49.718;11.082;2023-09-18T06:17:05;4.70;;;4.30;;
37383;SDS011;23258;49.718;11.082;2023-09-18T06:19:36;3.80;;;3.53;;
37383;SDS011;23258;49.718;11.082;2023-09-18T06:22:06;4.28;;;3.88;;
37383;SDS011;23258;49.718;11.082;2023-09-18T06:24:36;4.53;;;4.13;;
37383;SDS011;23258;49.718;11.082;2023-09-18T06:27:08;4.85;;;4.28;;
37383;SDS011;23258;49.718;11.082;2023-09-18T06:29:38;5.03;;;4.50;;
37383;SDS011;23258;49.718;11.082;2023-09-18T06:32:09;4.22;;;3.92;;
37383;SDS011;23258;49.718;11.082;2023-09-18T06:34:39;4.43;;;4.07;;
37383;SDS011;23258;49.718;11.082;2023-09-18T06:37:10;4.65;;;4.28;;
37383;SDS011;23258;49.718;11.082;2023-09-18T06:39:41;4.25;;;3.95;;
37383;SDS011;23258;49.718;11.082;2023-09-18T06:42:13;8.20;;;4.47;;
37383;SDS011;23258;49.718;11.082;2023-09-18T06:44:43;4.40;;;4.10;;
37383;SDS011;23258;49.718;11.082;2023-09-18T06:47:13;4.63;;;4.22;;
37383;SDS011;23258;49.718;11.082;2023-09-18T06:49:43;4.30;;;3.92;;
37383;SDS011;23258;49.718;11.082;2023-09-18T06:52:13;4.57;;;4.15;;
37383;SDS011;23258;49.718;11.082;2023-09-18T06:54:43;4.57;;;4.10;;
37383;SDS011;23258;49.718;11.082;2023-09-18T06:57:16;3.97;;;3.67;;
37383;SDS011;23258;49.718;11.082;2023-09-18T06:59:47;4.30;;;4.00;;
37383;SDS011;23258;49.718;11.082;2023-09-18T07:02:17;4.55;;;4.15;;
37383;SDS011;23258;49.718;11.082;2023-09-18T07:04:47;4.40;;;4.00;;
37383;SDS011;23258;49.718;11.082;2023-09-18T07:07:17;4.10;;;3.78;;
37383;SDS011;23258;49.718;11.082;2023-09-18T07:09:53;3.97;;;3.63;;
37383;SDS011;23258;49.718;11.082;2023-09-18T07:12:28;4.00;;;3.63;;
37383;SDS011;23258;49.718;11.082;2023-09-18T07:14:58;4.20;;;3.90;;
37383;SDS011;23258;49.718;11.082;2023-09-18T07:17:30;4.22;;;3.85;;
37383;SDS011;23258;49.718;11.082;2023-09-18T07:20:00;4.18;;;3.88;;
37383;SDS011;23258;49.718;11.082;2023-09-18T07:22:36;4.50;;;3.88;;
37383;SDS011;23258;49.718;11.082;2023-09-18T07:25:06;5.68;;;4.03;;
37383;SDS011;23258;49.718;11.082;2023-09-18T07:27:38;4.28;;;3.92;;
37383;SDS011;23258;49.718;11.082;2023-09-18T07:30:11;4.32;;;3.90;;
37383;SDS011;23258;49.718;11.082;2023-09-18T07:32:43;4.70;;;4.30;;
37383;SDS011;23258;49.718;11.082;2023-09-18T07:35:13;4.85;;;4.45;;
37383;SDS011;23258;49.718;11.082;2023-09-18T07:37:43;4.88;;;3.83;;
37383;SDS011;23258;49.718;11.082;2023-09-18T07:40:13;4.05;;;3.75;;
37383;SDS011;23258;49.718;11.082;2023-09-18T07:42:46;4.35;;;3.92;;
37383;SDS011;23258;49.718;11.082;2023-09-18T07:45:16;4.22;;;3.85;;
37383;SDS011;23258;49.718;11.082;2023-09-18T07:47:45;4.72;;;4.28;;
37383;SDS011;23258;49.718;11.082;2023-09-18T07:50:15;4.13;;;3.72;;
37383;SDS011;23258;49.718;11.082;2023-09-18T07:52:45;4.22;;;3.83;;
37383;SDS011;23258;49.718;11.082;2023-09-18T07:55:15;4.70;;;3.88;;
37383;SDS011;23258;49.718;11.082;2023-09-18T07:57:47;5.22;;;3.95;;
37383;SDS011;23258;49.718;11.082;2023-09-18T08:00:18;4.05;;;3.75;;
37383;SDS011;23258;49.718;11.082;2023-09-18T08:02:49;4.07;;;3.75;;
37383;SDS011;23258;49.718;11.082;2023-09-18T08:05:22;3.90;;;3.60;;
37383;SDS011;23258;49.718;11.082;2023-09-18T08:07:54;4.30;;;3.90;;
37383;SDS011;23258;49.718;11.082;2023-09-18T08:10:26;5.28;;;4.10;;
37383;SDS011;23258;49.718;11.082;2023-09-18T08:12:58;5.28;;;4.10;;
37383;SDS011;23258;49.718;11.082;2023-09-18T08:15:28;3.85;;;3.55;;
37383;SDS011;23258;49.718;11.082;2023-09-18T08:17:57;4.65;;;4.32;;
37383;SDS011;23258;49.718;11.082;2023-09-18T08:20:27;5.80;;;4.35;;
37383;SDS011;23258;49.718;11.082;2023-09-18T08:22:57;4.22;;;3.85;;
37383;SDS011;23258;49.718;11.082;2023-09-18T08:25:27;4.85;;;4.45;;
37383;SDS011;23258;49.718;11.082;2023-09-18T08:28:01;5.47;;;3.83;;
37383;SDS011;23258;49.718;11.082;2023-09-18T08:30:35;4.32;;;3.97;;
37383;SDS011;23258;49.718;11.082;2023-09-18T08:33:07;8.63;;;4.95;;
37383;SDS011;23258;49.718;11.082;2023-09-18T08:35:36;5.82;;;4.28;;
37383;SDS011;23258;49.718;11.082;2023-09-18T08:38:06;4.47;;;3.97;;
37383;SDS011;23258;49.718;11.082;2023-09-18T08:40:36;3.42;;;3.13;;
37383;SDS011;23258;49.718;11.082;2023-09-18T08:43:08;5.15;;;3.72;;
37383;SDS011;23258;49.718;11.082;2023-09-18T08:45:40;4.18;;;3.78;;
37383;SDS011;23258;49.718;11.082;2023-09-18T08:48:12;3.88;;;3.53;;
37383;SDS011;23258;49.718;11.082;2023-09-18T08:50:42;3.80;;;3.42;;
37383;SDS011;23258;49.718;11.082;2023-09-18T08:53:13;7.45;;;3.80;;
37383;SDS011;23258;49.718;11.082;2023-09-18T08:55:42;5.28;;;4.10;;
37383;SDS011;23258;49.718;11.082;2023-09-18T08:58:15;3.80;;;3.50;;
37383;SDS011;23258;49.718;11.082;2023-09-18T09:00:46;5.78;;;3.90;;
37383;SDS011;23258;49.718;11.082;2023-09-18T09:03:16;5.30;;;3.45;;
37383;SDS011;23258;49.718;11.082;2023-09-18T09:05:50;3.50;;;3.22;;
37383;SDS011;23258;49.718;11.082;2023-09-18T09:08:19;3.67;;;3.08;;
37383;SDS011;23258;49.718;11.082;2023-09-18T09:10:49;5.85;;;3.70;;
37383;SDS011;23258;49.718;11.082;2023-09-18T09:13:21;3.40;;;3.13;;
37383;SDS011;23258;49.718;11.082;2023-09-18T09:16:07;4.68;;;3.58;;
37383;SDS011;23258;49.718;11.082;2023-09-18T09:18:47;6.30;;;3.58;;
37383;SDS011;23258;49.718;11.082;2023-09-18T09:21:18;5.45;;;4.13;;
37383;SDS011;23258;49.718;11.082;2023-09-18T09:23:48;3.85;;;3.47;;
37383;SDS011;23258;49.718;11.082;2023-09-18T09:26:20;3.65;;;3.28;;
37383;SDS011;23258;49.718;11.082;2023-09-18T09:28:53;4.60;;;3.40;;
37383;SDS011;23258;49.718;11.082;2023-09-18T09:31:23;4.63;;;3.08;;
37383;SDS011;23258;49.718;11.082;2023-09-18T09:33:54;4.32;;;3.45;;
37383;SDS011;23258;49.718;11.082;2023-09-18T09:36:26;2.35;;;2.25;;
37383;SDS011;23258;49.718;11.082;2023-09-18T09:38:55;2.90;;;2.15;;
37383;SDS011;23258;49.718;11.082;2023-09-18T09:41:26;2.65;;;2.15;;
37383;SDS011;23258;49.718;11.082;2023-09-18T09:43:59;5.05;;;2.20;;
37383;SDS011;23258;49.718;11.082;2023-09-18T09:46:29;2.30;;;2.10;;
37383;SDS011;23258;49.718;11.082;2023-09-18T09:49:00;4.70;;;1.90;;
37383;SDS011;23258;49.718;11.082;2023-09-18T09:51:30;3.15;;;1.85;;
37383;SDS011;23258;49.718;11.082;2023-09-18T09:54:01;3.63;;;2.00;;
37383;SDS011;23258;49.718;11.082;2023-09-18T09:56:40;3.53;;;1.75;;
37383;SDS011;23258;49.718;11.082;2023-09-18T09:59:13;1.67;;;1.58;;
37383;SDS011;23258;49.718;11.082;2023-09-18T10:01:45;3.55;;;1.92;;
37383;SDS011;23258;49.718;11.082;2023-09-18T10:04:17;3.78;;;2.08;;
37383;SDS011;23258;49.718;11.082;2023-09-18T10:06:51;3.17;;;1.85;;
37383;SDS011;23258;49.718;11.082;2023-09-18T10:09:21;1.73;;;1.63;;
37383;SDS011;23258;49.718;11.082;2023-09-18T10:11:52;3.90;;;2.03;;
37383;SDS011;23258;49.718;11.082;2023-09-18T10:14:29;2.28;;;1.75;;
37383;SDS011;23258;49.718;11.082;2023-09-18T10:17:18;3.20;;;2.13;;
37383;SDS011;23258;49.718;11.082;2023-09-18T10:19:49;2.70;;;2.25;;
37383;SDS011;23258;49.718;11.082;2023-09-18T10:22:24;2.08;;;1.77;;
37383;SDS011;23258;49.718;11.082;2023-09-18T10:24:59;2.95;;;2.67;;
37383;SDS011;23258;49.718;11.082;2023-09-18T10:27:34;5.72;;;2.10;;
37383;SDS011;23258;49.718;11.082;2023-09-18T10:30:08;2.90;;;2.40;;
37383;SDS011;23258;49.718;11.082;2023-09-18T10:32:39;2.90;;;1.77;;
37383;SDS011;23258;49.718;11.082;2023-09-18T10:35:09;3.30;;;1.98;;
37383;SDS011;23258;49.718;11.082;2023-09-18T10:37:39;3.05;;;1.63;;
37383;SDS011;23258;49.718;11.082;2023-09-18T10:40:11;2.28;;;2.08;;
37383;SDS011;23258;49.718;11.082;2023-09-18T10:42:41;5.20;;;2.53;;
37383;SDS011;23258;49.718;11.082;2023-09-18T10:45:13;4.10;;;1.95;;
37383;SDS011;23258;49.718;11.082;2023-09-18T10:47:44;2.17;;;1.98;;
37383;SDS011;23258;49.718;11.082;2023-09-18T10:50:22;1.80;;;1.52;;
37383;SDS011;23258;49.718;11.082;2023-09-18T10:52:52;2.08;;;1.58;;
37383;SDS011;23258;49.718;11.082;2023-09-18T10:55:22;3.38;;;1.80;;
37383;SDS011;23258;49.718;11.082;2023-09-18T10:57:53;2.70;;;1.90;;
37383;SDS011;23258;49.718;11.082;2023-09-18T11:00:27;1.30;;;1.20;;
37383;SDS011;23258;49.718;11.082;2023-09-18T11:03:08;1.25;;;1.15;;
37383;SDS011;23258;49.718;11.082;2023-09-18T11:05:39;1.70;;;0.88;;
37383;SDS011;23258;49.718;11.082;2023-09-18T11:08:27;1.77;;;0.70;;
37383;SDS011;23258;49.718;11.082;2023-09-18T11:10:58;1.00;;;0.70;;
37383;SDS011;23258;49.718;11.082;2023-09-18T11:13:31;1.45;;;1.35;;
37383;SDS011;23258;49.718;11.082;2023-09-18T11:16:15;1.80;;;1.30;;
37383;SDS011;23258;49.718;11.082;2023-09-18T11:18:50;4.53;;;1.23;;
37383;SDS011;23258;49.718;11.082;2023-09-18T11:21:24;1.33;;;1.23;;
37383;SDS011;23258;49.718;11.082;2023-09-18T11:24:00;2.38;;;1.05;;
37383;SDS011;23258;49.718;11.082;2023-09-18T11:26:31;1.13;;;0.80;;
37383;SDS011;23258;49.718;11.082;2023-09-18T11:29:01;1.52;;;1.10;;
37383;SDS011;23258;49.718;11.082;2023-09-18T11:31:43;1.75;;;0.82;;
37383;SDS011;23258;49.718;11.082;2023-09-18T11:34:14;2.80;;;0.90;;
37383;SDS011;23258;49.718;11.082;2023-09-18T11:36:44;2.33;;;1.10;;
37383;SDS011;23258;49.718;11.082;2023-09-18T11:42:09;1.20;;;1.05;;
37383;SDS011;23258;49.718;11.082;2023-09-18T11:44:39;2.17;;;1.27;;
37383;SDS011;23258;49.718;11.082;2023-09-18T11:47:16;2.15;;;1.00;;
37383;SDS011;23258;49.718;11.082;2023-09-18T11:49:51;1.52;;;1.05;;
37383;SDS011;23258;49.718;11.082;2023-09-18T11:52:25;4.07;;;1.38;;
37383;SDS011;23258;49.718;11.082;2023-09-18T11:54:56;2.20;;;1.20;;
37383;SDS011;23258;49.718;11.082;2023-09-18T11:57:26;3.97;;;1.42;;
37383;SDS011;23258;49.718;11.082;2023-09-18T11:59:56;2.92;;;1.23;;
37383;SDS011;23258;49.718;11.082;2023-09-18T12:02:40;2.00;;;1.38;;
37383;SDS011;23258;49.718;11.082;2023-09-18T12:05:14;3.13;;;0.85;;
37383;SDS011;23258;49.718;11.082;2023-09-18T12:07:44;2.00;;;1.67;;
37383;SDS011;23258;49.718;11.082;2023-09-18T12:10:17;2.10;;;0.88;;
37383;SDS011;23258;49.718;11.082;2023-09-18T12:12:47;2.25;;;1.25;;
37383;SDS011;23258;49.718;11.082;2023-09-18T12:15:17;1.17;;;1.13;;
37383;SDS011;23258;49.718;11.082;2023-09-18T12:17:50;4.13;;;1.30;;
37383;SDS011;23258;49.718;11.082;2023-09-18T12:20:23;2.80;;;1.60;;
37383;SDS011;23258;49.718;11.082;2023-09-18T12:22:52;2.67;;;1.23;;
37383;SDS011;23258;49.718;11.082;2023-09-18T12:25:22;2.28;;;1.55;;
37383;SDS011;23258;49.718;11.082;2023-09-18T12:27:52;2.35;;;1.70;;
37383;SDS011;23258;49.718;11.082;2023-09-18T12:30:22;1.75;;;1.38;;
37383;SDS011;23258;49.718;11.082;2023-09-18T12:32:54;4.60;;;1.35;;
37383;SDS011;23258;49.718;11.082;2023-09-18T12:35:26;2.38;;;1.33;;
37383;SDS011;23258;49.718;11.082;2023-09-18T12:37:57;1.90;;;1.63;;
37383;SDS011;23258;49.718;11.082;2023-09-18T12:40:28;1.95;;;1.45;;
37383;SDS011;23258;49.718;11.082;2023-09-18T12:42:59;2.45;;;1.45;;
37383;SDS011;23258;49.718;11.082;2023-09-18T12:45:29;2.05;;;1.55;;
37383;SDS011;23258;49.718;11.082;2023-09-18T12:48:02;3.25;;;1.48;;
37383;SDS011;23258;49.718;11.082;2023-09-18T12:50:34;2.60;;;1.52;;
37383;SDS011;23258;49.718;11.082;2023-09-18T12:53:08;3.95;;;1.50;;
37383;SDS011;23258;49.718;11.082;2023-09-18T12:55:38;1.27;;;1.17;;
37383;SDS011;23258;49.718;11.082;2023-09-18T12:58:12;2.85;;;1.70;;
37383;SDS011;23258;49.718;11.082;2023-09-18T13:00:45;1.85;;;1.75;;
37383;SDS011;23258;49.718;11.082;2023-09-18T13:03:19;2.63;;;1.80;;
37383;SDS011;23258;49.718;11.082;2023-09-18T13:05:51;2.90;;;2.03;;
37383;SDS011;23258;49.718;11.082;2023-09-18T13:08:21;1.98;;;1.63;;
37383;SDS011;23258;49.718;11.082;2023-09-18T13:10:51;5.68;;;1.45;;
37383;SDS011;23258;49.718;11.082;2023-09-18T13:13:22;1.58;;;1.48;;
37383;SDS011;23258;49.718;11.082;2023-09-18T13:15:52;2.60;;;1.77;;
37383;SDS011;23258;49.718;11.082;2023-09-18T13:18:24;2.58;;;1.70;;
37383;SDS011;23258;49.718;11.082;2023-09-18T13:20:54;3.28;;;1.58;;
37383;SDS011;23258;49.718;11.082;2023-09-18T13:23:29;2.70;;;1.58;;
37383;SDS011;23258;49.718;11.082;2023-09-18T13:25:59;2.45;;;1.58;;
37383;SDS011;23258;49.718;11.082;2023-09-18T13:28:30;1.65;;;1.35;;
37383;SDS011;23258;49.718;11.082;2023-09-18T13:31:02;2.00;;;1.60;;
37383;SDS011;23258;49.718;11.082;2023-09-18T13:33:40;3.08;;;1.73;;
37383;SDS011;23258;49.718;11.082;2023-09-18T13:36:12;2.67;;;1.73;;
37383;SDS011;23258;49.718;11.082;2023-09-18T13:38:42;3.50;;;1.52;;
37383;SDS011;23258;49.718;11.082;2023-09-18T13:41:11;5.15;;;2.03;;
37383;SDS011;23258;49.718;11.082;2023-09-18T13:43:43;5.85;;;2.72;;
37383;SDS011;23258;49.718;11.082;2023-09-18T13:46:12;5.65;;;1.95;;
37383;SDS011;23258;49.718;11.082;2023-09-18T13:48:45;4.75;;;1.85;;
37383;SDS011;23258;49.718;11.082;2023-09-18T13:51:15;2.03;;;1.77;;
37383;SDS011;23258;49.718;11.082;2023-09-18T13:53:44;3.58;;;1.90;;
37383;SDS011;23258;49.718;11.082;2023-09-18T13:56:15;1.48;;;1.38;;
37383;SDS011;23258;49.718;11.082;2023-09-18T13:58:47;3.53;;;1.40;;
37383;SDS011;23258;49.718;11.082;2023-09-18T14:01:17;2.78;;;1.27;;
37383;SDS011;23258;49.718;11.082;2023-09-18T14:03:49;3.92;;;1.38;;
37383;SDS011;23258;49.718;11.082;2023-09-18T14:06:20;2.05;;;1.48;;
37383;SDS011;23258;49.718;11.082;2023-09-18T14:08:50;1.58;;;1.25;;
37383;SDS011;23258;49.718;11.082;2023-09-18T14:11:19;2.25;;;1.30;;
37383;SDS011;23258;49.718;11.082;2023-09-18T14:13:49;1.60;;;1.15;;
37383;SDS011;23258;49.718;11.082;2023-09-18T14:16:19;1.35;;;1.25;;
37383;SDS011;23258;49.718;11.082;2023-09-18T14:18:51;1.27;;;1.17;;
37383;SDS011;23258;49.718;11.082;2023-09-18T14:21:21;1.95;;;1.15;;
37383;SDS011;23258;49.718;11.082;2023-09-18T14:23:50;1.77;;;1.40;;
37383;SDS011;23258;49.718;11.082;2023-09-18T14:26:20;1.23;;;1.05;;
37383;SDS011;23258;49.718;11.082;2023-09-18T14:28:50;1.00;;;0.90;;
37383;SDS011;23258;49.718;11.082;2023-09-18T14:31:20;2.63;;;1.05;;
37383;SDS011;23258;49.718;11.082;2023-09-18T14:33:53;1.70;;;0.98;;
37383;SDS011;23258;49.718;11.082;2023-09-18T14:36:25;1.60;;;0.82;;
37383;SDS011;23258;49.718;11.082;2023-09-18T14:38:56;2.42;;;1.20;;
37383;SDS011;23258;49.718;11.082;2023-09-18T14:41:25;1.30;;;0.68;;
37383;SDS011;23258;49.718;11.082;2023-09-18T14:43:55;3.33;;;0.82;;
37383;SDS011;23258;49.718;11.082;2023-09-18T14:46:25;1.10;;;1.00;;
37383;SDS011;23258;49.718;11.082;2023-09-18T14:48:58;1.13;;;0.90;;
37383;SDS011;23258;49.718;11.082;2023-09-18T14:51:27;1.17;;;1.08;;
37383;SDS011;23258;49.718;11.082;2023-09-18T14:53:57;1.05;;;1.02;;
37383;SDS011;23258;49.718;11.082;2023-09-18T14:56:27;1.05;;;1.00;;
37383;SDS011;23258;49.718;11.082;2023-09-18T14:58:57;0.90;;;0.90;;
37383;SDS011;23258;49.718;11.082;2023-09-18T15:01:28;1.15;;;1.10;;